createdAt,value
2024-02-11T00:00:30.890Z,12.9
2024-02-11T00:01:31.017Z,13.5
2024-02-11T00:02:31.011Z,13.7
2024-02-11T00:03:30.892Z,14.1
2024-02-11T00:04:31.191Z,14.1
2024-02-11T00:05:32.965Z,15.1
2024-02-11T00:06:30.937Z,15.5
2024-02-11T00:07:30.934Z,15.4
2024-02-11T00:08:30.878Z,15.3
2024-02-11T00:09:30.912Z,16.3
2024-02-11T00:10:30.954Z,15.7
2024-02-11T00:11:30.849Z,15.2
2024-02-11T00:12:31.221Z,19.6
2024-02-11T00:13:30.912Z,19.6
2024-02-11T00:14:31.265Z,20.6
2024-02-11T00:15:30.844Z,23.2
2024-02-11T00:16:30.927Z,20.4
2024-02-11T00:17:31.038Z,14.1
2024-02-11T00:18:30.845Z,14.7
2024-02-11T00:19:30.907Z,13.7
2024-02-11T00:20:30.960Z,17.1
2024-02-11T00:21:30.832Z,16.6
2024-02-11T00:22:31.072Z,16.5
2024-02-11T00:23:30.986Z,17.9
2024-02-11T00:24:30.903Z,17.8
2024-02-11T00:25:30.899Z,17.3
2024-02-11T00:26:32.992Z,15.9
2024-02-11T00:27:31.265Z,17.8
2024-02-11T00:28:30.980Z,17.7
2024-02-11T00:29:30.858Z,15.0
2024-02-11T00:30:30.897Z,13.9
2024-02-11T00:31:30.927Z,14.0
2024-02-11T00:32:31.243Z,12.8
2024-02-11T00:33:30.996Z,12.1
2024-02-11T00:34:30.995Z,11.1
2024-02-11T00:35:31.025Z,12.0
2024-02-11T00:36:30.824Z,13.0
2024-02-11T00:37:31.495Z,12.4
2024-02-11T00:38:30.868Z,12.8
2024-02-11T00:39:30.821Z,13.2
2024-02-11T00:40:30.845Z,12.9
2024-02-11T00:41:30.853Z,12.4
2024-02-11T00:42:31.305Z,13.2
2024-02-11T00:43:30.917Z,11.5
2024-02-11T00:44:30.823Z,13.8
2024-02-11T00:45:30.840Z,19.7
2024-02-11T00:46:30.818Z,46.2
2024-02-11T00:47:33.957Z,38.3
2024-02-11T00:48:30.932Z,43.6
2024-02-11T00:49:30.829Z,29.3
2024-02-11T00:50:30.823Z,17.5
2024-02-11T00:51:31.140Z,16.9
2024-02-11T00:52:31.001Z,15.9
2024-02-11T00:53:30.993Z,14.8
2024-02-11T00:54:30.919Z,15.2
2024-02-11T00:55:30.829Z,14.6
2024-02-11T00:56:31.059Z,19.4
2024-02-11T00:57:30.945Z,18.2
2024-02-11T00:58:30.821Z,15.7
2024-02-11T00:59:30.854Z,15.9
2024-02-11T01:00:30.820Z,16.0
2024-02-11T01:01:30.856Z,17.4
2024-02-11T01:02:31.008Z,16.3
2024-02-11T01:03:30.808Z,15.0
2024-02-11T01:04:30.856Z,15.8
2024-02-11T01:05:30.851Z,16.5
2024-02-11T01:06:30.923Z,14.9
2024-02-11T01:07:32.046Z,15.0
2024-02-11T01:08:34.135Z,15.7
2024-02-11T01:09:30.755Z,19.4
2024-02-11T01:10:30.835Z,18.9
2024-02-11T01:11:30.768Z,18.2
2024-02-11T01:12:31.263Z,17.9
2024-02-11T01:13:30.950Z,16.7
2024-02-11T01:14:30.747Z,15.9
2024-02-11T01:15:30.796Z,16.2
2024-02-11T01:16:30.868Z,14.6
2024-02-11T01:17:31.009Z,15.4
2024-02-11T01:18:30.955Z,15.1
2024-02-11T01:19:30.778Z,14.9
2024-02-11T01:20:30.796Z,14.3
2024-02-11T01:21:30.838Z,14.0
2024-02-11T01:22:31.023Z,12.9
2024-02-11T01:23:30.846Z,13.0
2024-02-11T01:24:30.936Z,13.4
2024-02-11T01:25:30.911Z,13.3
2024-02-11T01:26:30.799Z,13.3
2024-02-11T01:27:31.284Z,13.6
2024-02-11T01:28:31.390Z,13.8
2024-02-11T01:29:34.253Z,13.6
2024-02-11T01:30:30.937Z,13.7
2024-02-11T01:31:30.866Z,12.8
2024-02-11T01:32:31.127Z,12.4
2024-02-11T01:33:30.902Z,13.0
2024-02-11T01:34:30.926Z,13.7
2024-02-11T01:35:31.013Z,11.9
2024-02-11T01:36:30.808Z,12.4
2024-02-11T01:37:30.762Z,12.6
2024-02-11T01:38:30.798Z,13.3
2024-02-11T01:39:30.852Z,12.7
2024-02-11T01:40:30.848Z,12.9
2024-02-11T01:41:30.770Z,13.8
2024-02-11T01:42:30.773Z,12.9
2024-02-11T01:43:30.853Z,11.8
2024-02-11T01:44:30.913Z,12.5
2024-02-11T01:45:30.782Z,13.0
2024-02-11T01:46:30.801Z,11.6
2024-02-11T01:47:31.166Z,11.0
2024-02-11T01:48:30.786Z,11.8
2024-02-11T01:49:32.153Z,11.0
2024-02-11T01:50:30.952Z,10.8
2024-02-11T01:51:30.792Z,11.4
2024-02-11T01:52:30.757Z,11.2
2024-02-11T01:53:30.728Z,11.6
2024-02-11T01:54:31.017Z,10.9
2024-02-11T01:55:30.737Z,11.0
2024-02-11T01:56:30.911Z,10.8
2024-02-11T01:57:30.730Z,11.3
2024-02-11T01:58:30.801Z,11.1
2024-02-11T01:59:30.719Z,12.9
2024-02-11T02:00:30.790Z,11.5
2024-02-11T02:01:30.913Z,11.1
2024-02-11T02:02:30.790Z,12.8
2024-02-11T02:03:30.700Z,13.8
2024-02-11T02:04:30.963Z,14.7
2024-02-11T02:05:30.786Z,14.9
2024-02-11T02:06:30.767Z,13.4
2024-02-11T02:07:30.768Z,14.0
2024-02-11T02:08:30.718Z,15.3
2024-02-11T02:09:30.751Z,15.0
2024-02-11T02:10:33.199Z,14.4
2024-02-11T02:11:30.795Z,13.4
2024-02-11T02:12:30.670Z,13.9
2024-02-11T02:13:30.862Z,11.8
2024-02-11T02:14:30.670Z,11.4
2024-02-11T02:15:30.724Z,12.7
2024-02-11T02:16:30.794Z,11.3
2024-02-11T02:17:30.717Z,11.5
2024-02-11T02:18:30.807Z,10.7
2024-02-11T02:19:30.680Z,11.4
2024-02-11T02:20:30.689Z,11.7
2024-02-11T02:21:30.862Z,10.1
2024-02-11T02:22:30.823Z,11.0
2024-02-11T02:23:30.884Z,10.3
2024-02-11T02:24:30.726Z,10.4
2024-02-11T02:25:30.851Z,10.5
2024-02-11T02:26:30.694Z,9.0
2024-02-11T02:27:30.677Z,10.9
2024-02-11T02:28:30.676Z,9.0
2024-02-11T02:29:30.663Z,9.4
2024-02-11T02:30:30.703Z,9.0
2024-02-11T02:31:32.453Z,9.0
2024-02-11T02:32:30.699Z,9.3
2024-02-11T02:33:30.671Z,10.2
2024-02-11T02:34:30.755Z,9.0
2024-02-11T02:35:30.718Z,9.6
2024-02-11T02:36:30.642Z,8.1
2024-02-11T02:37:30.648Z,8.5
2024-02-11T02:38:30.767Z,8.8
2024-02-11T02:39:30.596Z,8.9
2024-02-11T02:40:30.693Z,8.8
2024-02-11T02:41:30.674Z,9.0
2024-02-11T02:42:30.685Z,8.8
2024-02-11T02:43:30.649Z,8.4
2024-02-11T02:44:30.636Z,8.4
2024-02-11T02:45:30.796Z,8.5
2024-02-11T02:46:30.637Z,8.7
2024-02-11T02:47:30.667Z,8.2
2024-02-11T02:48:30.675Z,8.8
2024-02-11T02:49:30.637Z,9.2
2024-02-11T02:50:30.635Z,8.5
2024-02-11T02:51:30.606Z,9.9
2024-02-11T02:52:32.955Z,9.2
2024-02-11T02:53:30.613Z,10.7
2024-02-11T02:54:30.595Z,10.6
2024-02-11T02:55:30.656Z,10.8
2024-02-11T02:56:30.807Z,13.3
2024-02-11T02:57:30.623Z,13.2
2024-02-11T02:58:30.619Z,17.5
2024-02-11T02:59:30.594Z,16.6
2024-02-11T03:00:30.597Z,13.3
2024-02-11T03:01:30.646Z,14.8
2024-02-11T03:02:30.595Z,14.9
2024-02-11T03:03:30.783Z,12.6
2024-02-11T03:04:30.673Z,11.3
2024-02-11T03:05:30.682Z,11.1
2024-02-11T03:06:30.842Z,10.7
2024-02-11T03:07:30.696Z,9.8
2024-02-11T03:08:30.617Z,10.3
2024-02-11T03:09:30.597Z,10.6
2024-02-11T03:10:30.560Z,9.2
2024-02-11T03:11:30.659Z,9.3
2024-02-11T03:12:30.590Z,9.4
2024-02-11T03:13:32.760Z,8.3
2024-02-11T03:14:30.591Z,8.7
2024-02-11T03:15:30.573Z,7.7
2024-02-11T03:16:30.607Z,8.0
2024-02-11T03:17:30.779Z,8.1
2024-02-11T03:18:30.756Z,8.3
2024-02-11T03:19:30.562Z,7.9
2024-02-11T03:20:30.586Z,7.9
2024-02-11T03:21:30.632Z,7.9
2024-02-11T03:22:30.600Z,7.5
2024-02-11T03:23:30.589Z,7.7
2024-02-11T03:24:30.540Z,6.4
2024-02-11T03:25:30.575Z,6.9
2024-02-11T03:26:32.040Z,7.3
2024-02-11T03:27:30.558Z,6.7
2024-02-11T03:28:30.635Z,7.9
2024-02-11T03:29:30.949Z,6.7
2024-02-11T03:30:30.596Z,6.6
2024-02-11T03:31:30.554Z,7.6
2024-02-11T03:32:30.830Z,6.8
2024-02-11T03:33:30.633Z,7.5
2024-02-11T03:34:33.452Z,7.8
2024-02-11T03:35:30.626Z,7.7
2024-02-11T03:36:30.792Z,6.6
2024-02-11T03:37:31.106Z,6.4
2024-02-11T03:38:30.774Z,7.1
2024-02-11T03:39:31.356Z,7.5
2024-02-11T03:40:30.566Z,6.8
2024-02-11T03:41:30.567Z,7.2
2024-02-11T03:42:30.551Z,6.7
2024-02-11T03:43:30.622Z,8.0
2024-02-11T03:44:30.547Z,7.4
2024-02-11T03:45:30.547Z,8.0
2024-02-11T03:46:30.549Z,7.6
2024-02-11T03:47:30.678Z,7.0
2024-02-11T03:48:30.647Z,6.7
2024-02-11T03:49:30.490Z,6.9
2024-02-11T03:50:30.716Z,7.5
2024-02-11T03:51:30.638Z,6.8
2024-02-11T03:52:30.525Z,8.5
2024-02-11T03:53:30.524Z,7.5
2024-02-11T03:54:30.626Z,8.4
2024-02-11T03:55:33.142Z,8.7
2024-02-11T03:56:30.828Z,7.8
2024-02-11T03:57:30.531Z,8.1
2024-02-11T03:58:30.501Z,9.1
2024-02-11T03:59:30.582Z,7.8
2024-02-11T04:00:30.550Z,7.8
2024-02-11T04:01:30.678Z,7.5
2024-02-11T04:02:30.486Z,9.3
2024-02-11T04:03:30.544Z,8.6
2024-02-11T04:04:30.565Z,8.4
2024-02-11T04:05:30.682Z,8.4
2024-02-11T04:06:30.582Z,8.4
2024-02-11T04:07:30.528Z,8.7
2024-02-11T04:08:30.608Z,9.0
2024-02-11T04:09:30.624Z,8.4
2024-02-11T04:10:30.654Z,8.2
2024-02-11T04:11:30.499Z,8.5
2024-02-11T04:12:30.652Z,8.9
2024-02-11T04:13:30.496Z,8.2
2024-02-11T04:14:30.542Z,8.3
2024-02-11T04:15:30.502Z,9.1
2024-02-11T04:16:32.951Z,8.5
2024-02-11T04:17:30.478Z,8.3
2024-02-11T04:18:30.562Z,8.3
2024-02-11T04:19:30.531Z,9.7
2024-02-11T04:20:30.543Z,8.9
2024-02-11T04:21:30.458Z,9.0
2024-02-11T04:22:30.580Z,9.2
2024-02-11T04:23:30.596Z,8.6
2024-02-11T04:24:30.504Z,8.6
2024-02-11T04:25:30.834Z,7.3
2024-02-11T04:26:30.605Z,8.4
2024-02-11T04:27:30.470Z,8.3
2024-02-11T04:28:30.466Z,9.3
2024-02-11T04:29:30.553Z,8.2
2024-02-11T04:30:30.533Z,8.8
2024-02-11T04:31:30.508Z,7.8
2024-02-11T04:32:30.512Z,9.2
2024-02-11T04:33:30.481Z,9.0
2024-02-11T04:34:30.621Z,8.6
2024-02-11T04:35:30.507Z,9.0
2024-02-11T04:36:30.435Z,8.4
2024-02-11T04:37:33.454Z,8.4
2024-02-11T04:38:30.492Z,8.1
2024-02-11T04:39:30.439Z,8.6
2024-02-11T04:40:30.447Z,9.2
2024-02-11T04:41:30.513Z,9.1
2024-02-11T04:42:30.465Z,8.9
2024-02-11T04:43:30.527Z,9.3
2024-02-11T04:44:30.467Z,9.0
2024-02-11T04:45:30.604Z,8.9
2024-02-11T04:46:30.515Z,8.4
2024-02-11T04:47:31.490Z,8.4
2024-02-11T04:48:30.604Z,8.8
2024-02-11T04:49:30.589Z,8.5
2024-02-11T04:50:30.435Z,10.1
2024-02-11T04:51:30.460Z,9.3
2024-02-11T04:52:30.471Z,9.4
2024-02-11T04:53:30.484Z,8.0
2024-02-11T04:54:30.434Z,8.7
2024-02-11T04:55:30.436Z,8.6
2024-02-11T04:56:30.498Z,9.1
2024-02-11T04:57:30.482Z,8.5
2024-02-11T04:58:33.383Z,8.1
2024-02-11T04:59:30.441Z,9.7
2024-02-11T05:00:30.437Z,8.9
2024-02-11T05:01:30.442Z,8.0
2024-02-11T05:02:30.447Z,7.2
2024-02-11T05:03:30.432Z,8.8
2024-02-11T05:04:30.480Z,8.2
2024-02-11T05:05:30.745Z,8.8
2024-02-11T05:06:30.518Z,7.5
2024-02-11T05:07:30.407Z,8.9
2024-02-11T05:08:30.470Z,7.3
2024-02-11T05:09:30.445Z,8.0
2024-02-11T05:10:30.432Z,7.0
2024-02-11T05:11:30.537Z,7.1
2024-02-11T05:12:30.440Z,6.4
2024-02-11T05:13:30.672Z,7.5
2024-02-11T05:14:30.404Z,7.6
2024-02-11T05:15:30.534Z,8.5
2024-02-11T05:16:30.455Z,7.5
2024-02-11T05:17:30.406Z,7.3
2024-02-11T05:18:30.647Z,7.5
2024-02-11T05:19:33.488Z,7.1
2024-02-11T05:20:30.555Z,7.5
2024-02-11T05:21:30.422Z,7.6
2024-02-11T05:22:30.415Z,7.6
2024-02-11T05:23:30.428Z,8.2
2024-02-11T05:24:30.378Z,8.3
2024-02-11T05:25:30.483Z,8.9
2024-02-11T05:26:30.381Z,7.6
2024-02-11T05:27:30.414Z,8.1
2024-02-11T05:28:30.401Z,8.7
2024-02-11T05:29:30.340Z,9.2
2024-02-11T05:30:30.640Z,9.1
2024-02-11T05:31:30.438Z,9.0
2024-02-11T05:32:30.417Z,9.0
2024-02-11T05:33:30.658Z,8.9
2024-02-11T05:34:30.357Z,8.9
2024-02-11T05:35:30.439Z,8.9
2024-02-11T05:36:30.361Z,8.9
2024-02-11T05:37:30.389Z,9.0
2024-02-11T05:38:33.362Z,9.1
2024-02-11T05:39:30.475Z,9.1
2024-02-11T05:40:33.693Z,8.7
2024-02-11T05:41:30.513Z,9.1
2024-02-11T05:42:30.359Z,8.6
2024-02-11T05:43:30.372Z,9.2
2024-02-11T05:44:30.364Z,8.9
2024-02-11T05:45:30.378Z,8.5
2024-02-11T05:46:30.380Z,9.2
2024-02-11T05:47:30.408Z,9.3
2024-02-11T05:48:30.519Z,8.8
2024-02-11T05:49:30.374Z,9.5
2024-02-11T05:50:30.418Z,8.9
2024-02-11T05:51:30.351Z,7.8
2024-02-11T05:52:31.256Z,9.0
2024-02-11T05:53:30.403Z,9.8
2024-02-11T05:54:30.347Z,7.8
2024-02-11T05:55:30.363Z,8.9
2024-02-11T05:56:30.386Z,8.1
2024-02-11T05:57:30.352Z,8.1
2024-02-11T05:58:30.403Z,8.3
2024-02-11T05:59:30.341Z,7.9
2024-02-11T06:00:30.854Z,8.5
2024-02-11T06:01:33.518Z,8.3
2024-02-11T06:02:30.322Z,8.0
2024-02-11T06:03:30.638Z,8.7
2024-02-11T06:04:30.417Z,8.6
2024-02-11T06:05:30.978Z,8.3
2024-02-11T06:06:30.495Z,8.9
2024-02-11T06:07:30.553Z,9.2
2024-02-11T06:08:30.835Z,8.0
2024-02-11T06:09:30.384Z,7.8
2024-02-11T06:10:30.632Z,8.2
2024-02-11T06:11:30.598Z,8.6
2024-02-11T06:12:30.658Z,8.9
2024-02-11T06:13:30.488Z,8.4
2024-02-11T06:14:30.576Z,8.3
2024-02-11T06:15:30.371Z,9.5
2024-02-11T06:16:30.477Z,10.3
2024-02-11T06:17:30.453Z,9.2
2024-02-11T06:18:30.635Z,8.9
2024-02-11T06:19:30.487Z,9.1
2024-02-11T06:20:31.697Z,10.1
2024-02-11T06:21:31.120Z,9.3
2024-02-11T06:22:34.835Z,9.5
2024-02-11T06:23:30.372Z,9.5
2024-02-11T06:24:30.514Z,10.1
2024-02-11T06:25:30.860Z,9.7
2024-02-11T06:26:30.391Z,9.6
2024-02-11T06:27:30.630Z,9.3
2024-02-11T06:28:30.396Z,9.7
2024-02-11T06:29:30.414Z,9.1
2024-02-11T06:30:30.313Z,10.2
2024-02-11T06:31:31.219Z,11.8
2024-02-11T06:32:32.254Z,12.0
2024-02-11T06:33:30.594Z,11.6
2024-02-11T06:34:30.345Z,10.6
2024-02-11T06:35:30.349Z,10.0
2024-02-11T06:36:30.560Z,8.8
2024-02-11T06:37:30.289Z,10.6
2024-02-11T06:38:30.303Z,9.7
2024-02-11T06:39:30.372Z,8.3
2024-02-11T06:40:30.357Z,8.4
2024-02-11T06:41:30.436Z,9.2
2024-02-11T06:42:31.641Z,9.4
2024-02-11T06:43:30.314Z,10.4
2024-02-11T06:44:30.376Z,9.8
2024-02-11T06:45:30.829Z,9.1
2024-02-11T06:46:30.320Z,9.9
2024-02-11T06:47:30.625Z,8.6
2024-02-11T06:48:30.433Z,9.0
2024-02-11T06:49:30.303Z,9.2
2024-02-11T06:50:30.281Z,11.2
2024-02-11T06:51:30.452Z,9.7
2024-02-11T06:52:30.248Z,10.0
2024-02-11T06:53:30.260Z,9.7
2024-02-11T06:54:31.463Z,10.7
2024-02-11T06:55:30.328Z,20.0
2024-02-11T06:56:30.290Z,25.1
2024-02-11T06:57:30.436Z,19.4
2024-02-11T06:58:30.389Z,17.8
2024-02-11T06:59:30.343Z,15.9
2024-02-11T07:00:30.291Z,12.3
2024-02-11T07:01:30.231Z,10.3
2024-02-11T07:02:30.327Z,20.6
2024-02-11T07:03:31.814Z,17.2
2024-02-11T07:04:34.143Z,17.2
2024-02-11T07:05:30.319Z,77.4
2024-02-11T07:06:30.304Z,32.8
2024-02-11T07:07:30.294Z,18.8
2024-02-11T07:08:30.361Z,16.2
2024-02-11T07:09:30.620Z,14.7
2024-02-11T07:10:30.201Z,25.0
2024-02-11T07:11:30.226Z,35.3
2024-02-11T07:12:30.192Z,24.6
2024-02-11T07:13:32.364Z,48.4
2024-02-11T07:14:30.221Z,56.9
2024-02-11T07:15:30.419Z,58.7
2024-02-11T07:16:30.411Z,89.0
2024-02-11T07:17:30.520Z,79.4
2024-02-11T07:18:30.699Z,83.7
2024-02-11T07:19:30.406Z,67.8
2024-02-11T07:20:30.632Z,59.0
2024-02-11T07:21:30.669Z,24.2
2024-02-11T07:22:30.473Z,16.5
2024-02-11T07:23:30.354Z,23.7
2024-02-11T07:24:32.721Z,30.3
2024-02-11T07:25:30.284Z,18.3
2024-02-11T07:26:30.424Z,13.2
2024-02-11T07:27:30.352Z,12.1
2024-02-11T07:28:30.223Z,13.2
2024-02-11T07:29:30.178Z,12.6
2024-02-11T07:30:30.243Z,14.7
2024-02-11T07:31:30.196Z,11.5
2024-02-11T07:32:30.660Z,10.4
2024-02-11T07:33:30.280Z,9.3
2024-02-11T07:34:30.370Z,11.1
2024-02-11T07:35:30.256Z,10.4
2024-02-11T07:36:30.220Z,9.8
2024-02-11T07:37:30.208Z,9.8
2024-02-11T07:38:30.266Z,9.7
2024-02-11T07:39:30.249Z,9.8
2024-02-11T07:40:30.162Z,8.7
2024-02-11T07:41:30.161Z,9.1
2024-02-11T07:42:30.158Z,8.8
2024-02-11T07:43:30.211Z,9.1
2024-02-11T07:44:30.252Z,8.5
2024-02-11T07:45:32.566Z,9.3
2024-02-11T07:46:30.152Z,9.1
2024-02-11T07:47:30.236Z,9.8
2024-02-11T07:48:30.277Z,9.9
2024-02-11T07:49:30.217Z,9.0
2024-02-11T07:50:30.248Z,9.8
2024-02-11T07:51:30.234Z,9.6
2024-02-11T07:52:30.504Z,10.4
2024-02-11T07:53:30.209Z,9.2
2024-02-11T07:54:30.181Z,9.8
2024-02-11T07:55:30.232Z,10.3
2024-02-11T07:56:30.213Z,9.0
2024-02-11T07:57:30.144Z,8.8
2024-02-11T07:58:30.165Z,10.4
2024-02-11T07:59:30.352Z,9.6
2024-02-11T08:00:30.301Z,9.3
2024-02-11T08:01:30.203Z,10.6
2024-02-11T08:02:30.590Z,9.7
2024-02-11T08:03:30.469Z,9.2
2024-02-11T08:04:30.313Z,9.2
2024-02-11T08:05:31.080Z,10.4
2024-02-11T08:06:33.748Z,10.1
2024-02-11T08:07:30.729Z,10.3
2024-02-11T08:08:30.922Z,12.2
2024-02-11T08:09:30.820Z,10.2
2024-02-11T08:10:30.579Z,10.3
2024-02-11T08:11:30.312Z,11.1
2024-02-11T08:12:30.507Z,11.4
2024-02-11T08:13:30.295Z,10.7
2024-02-11T08:14:30.336Z,9.9
2024-02-11T08:15:30.196Z,11.0
2024-02-11T08:16:30.111Z,11.6
2024-02-11T08:17:30.674Z,11.9
2024-02-11T08:18:30.393Z,11.1
2024-02-11T08:19:33.261Z,10.7
2024-02-11T08:20:30.875Z,10.6
2024-02-11T08:21:31.175Z,10.6
2024-02-11T08:22:30.497Z,11.6
2024-02-11T08:23:30.344Z,11.5
2024-02-11T08:24:30.727Z,11.3
2024-02-11T08:25:30.127Z,13.0
2024-02-11T08:26:31.772Z,15.2
2024-02-11T08:27:30.225Z,13.2
2024-02-11T08:28:30.272Z,14.1
2024-02-11T08:29:30.161Z,11.0
2024-02-11T08:30:30.089Z,10.1
2024-02-11T08:31:30.544Z,9.9
2024-02-11T08:32:30.313Z,9.8
2024-02-11T08:33:30.172Z,10.3
2024-02-11T08:34:30.259Z,13.2
2024-02-11T08:35:30.262Z,18.1
2024-02-11T08:36:30.111Z,19.6
2024-02-11T08:37:30.116Z,14.4
2024-02-11T08:38:30.166Z,16.4
2024-02-11T08:39:30.132Z,11.8
2024-02-11T08:40:30.135Z,10.8
2024-02-11T08:41:30.128Z,17.2
2024-02-11T08:42:30.113Z,23.4
2024-02-11T08:43:30.162Z,14.1
2024-02-11T08:44:30.175Z,18.9
2024-02-11T08:45:30.213Z,15.3
2024-02-11T08:46:30.130Z,12.2
2024-02-11T08:47:31.630Z,10.3
2024-02-11T08:48:30.220Z,14.7
2024-02-11T08:49:30.190Z,18.1
2024-02-11T08:50:30.286Z,17.8
2024-02-11T08:51:30.094Z,18.7
2024-02-11T08:52:30.077Z,16.7
2024-02-11T08:53:30.369Z,16.3
2024-02-11T08:54:30.314Z,15.5
2024-02-11T08:55:30.158Z,18.0
2024-02-11T08:56:30.160Z,17.3
2024-02-11T08:57:30.071Z,14.6
2024-02-11T08:58:30.101Z,13.9
2024-02-11T08:59:30.081Z,15.0
2024-02-11T09:00:30.161Z,12.7
2024-02-11T09:01:30.077Z,13.4
2024-02-11T09:02:32.055Z,10.7
2024-02-11T09:03:30.145Z,10.9
2024-02-11T09:04:30.118Z,10.6
2024-02-11T09:05:30.294Z,10.5
2024-02-11T09:06:30.234Z,10.2
2024-02-11T09:07:30.121Z,10.2
2024-02-11T09:08:31.568Z,9.7
2024-02-11T09:09:30.060Z,10.1
2024-02-11T09:10:30.054Z,11.8
2024-02-11T09:11:30.247Z,10.7
2024-02-11T09:12:30.027Z,10.5
2024-02-11T09:13:30.030Z,10.1
2024-02-11T09:14:30.258Z,10.8
2024-02-11T09:15:30.036Z,10.7
2024-02-11T09:16:30.346Z,10.0
2024-02-11T09:17:30.135Z,11.4
2024-02-11T09:18:30.183Z,10.4
2024-02-11T09:19:30.140Z,10.8
2024-02-11T09:20:30.056Z,10.3
2024-02-11T09:21:30.083Z,10.5
2024-02-11T09:22:30.081Z,11.1
2024-02-11T09:23:30.092Z,20.3
2024-02-11T09:24:30.080Z,20.2
2024-02-11T09:25:30.017Z,14.0
2024-02-11T09:26:30.063Z,12.0
2024-02-11T09:27:30.657Z,10.5
2024-02-11T09:28:30.045Z,13.5
2024-02-11T09:29:31.569Z,14.3
2024-02-11T09:30:30.003Z,12.5
2024-02-11T09:31:30.072Z,11.6
2024-02-11T09:32:30.259Z,11.1
2024-02-11T09:33:30.287Z,14.1
2024-02-11T09:34:30.098Z,14.8
2024-02-11T09:35:30.268Z,14.0
2024-02-11T09:36:30.021Z,11.1
2024-02-11T09:37:30.047Z,14.5
2024-02-11T09:38:30.198Z,16.5
2024-02-11T09:39:30.026Z,15.1
2024-02-11T09:40:30.012Z,12.6
2024-02-11T09:41:30.043Z,12.7
2024-02-11T09:42:30.084Z,13.3
2024-02-11T09:43:30.028Z,16.8
2024-02-11T09:44:30.055Z,20.2
2024-02-11T09:45:30.035Z,20.7
2024-02-11T09:46:29.999Z,41.8
2024-02-11T09:47:30.018Z,40.6
2024-02-11T09:48:30.092Z,41.8
2024-02-11T09:49:30.323Z,39.2
2024-02-11T09:50:31.595Z,39.4
2024-02-11T09:51:30.076Z,36.6
2024-02-11T09:52:30.029Z,37.4
2024-02-11T09:53:30.026Z,31.0
2024-02-11T09:54:30.773Z,47.8
2024-02-11T09:55:30.804Z,188.9
2024-02-11T09:56:30.818Z,146.9
2024-02-11T09:57:30.054Z,70.1
2024-02-11T09:58:31.582Z,63.7
2024-02-11T09:59:30.120Z,51.3
2024-02-11T10:00:30.099Z,55.9
2024-02-11T10:01:30.122Z,52.6
2024-02-11T10:02:30.077Z,36.8
2024-02-11T10:03:30.009Z,46.7
2024-02-11T10:04:30.051Z,28.4
2024-02-11T10:05:30.165Z,36.0
2024-02-11T10:06:32.317Z,35.0
2024-02-11T10:07:30.243Z,27.2
2024-02-11T10:08:30.080Z,20.8
2024-02-11T10:09:30.011Z,16.7
2024-02-11T10:10:30.002Z,16.6
2024-02-11T10:11:31.694Z,22.1
2024-02-11T10:12:30.001Z,21.6
2024-02-11T10:13:30.006Z,14.9
2024-02-11T10:14:30.233Z,19.0
2024-02-11T10:15:29.956Z,19.6
2024-02-11T10:16:29.992Z,18.5
2024-02-11T10:17:30.036Z,20.2
2024-02-11T10:18:30.204Z,13.1
2024-02-11T10:19:29.989Z,12.9
2024-02-11T10:20:30.142Z,15.9
2024-02-11T10:21:29.947Z,13.9
2024-02-11T10:22:29.989Z,8.2
2024-02-11T10:23:30.163Z,7.9
2024-02-11T10:24:29.987Z,8.4
2024-02-11T10:25:29.985Z,7.4
2024-02-11T10:26:30.074Z,7.3
2024-02-11T10:27:30.035Z,9.0
2024-02-11T10:28:30.059Z,7.7
2024-02-11T10:29:30.298Z,8.5
2024-02-11T10:30:29.980Z,8.2
2024-02-11T10:31:30.040Z,10.3
2024-02-11T10:32:32.362Z,7.0
2024-02-11T10:33:30.457Z,8.1
2024-02-11T10:34:29.988Z,9.0
2024-02-11T10:35:30.037Z,13.0
2024-02-11T10:36:29.955Z,9.8
2024-02-11T10:37:29.969Z,11.4
2024-02-11T10:38:30.060Z,9.0
2024-02-11T10:39:30.200Z,11.9
2024-02-11T10:40:30.057Z,15.3
2024-02-11T10:41:30.117Z,24.9
2024-02-11T10:42:29.958Z,18.2
2024-02-11T10:43:29.985Z,22.3
2024-02-11T10:44:30.154Z,18.3
2024-02-11T10:45:30.143Z,15.9
2024-02-11T10:46:30.059Z,18.1
2024-02-11T10:47:30.064Z,18.0
2024-02-11T10:48:30.097Z,18.2
2024-02-11T10:49:29.994Z,17.4
2024-02-11T10:50:30.156Z,17.0
2024-02-11T10:51:29.979Z,21.6
2024-02-11T10:52:30.166Z,23.1
2024-02-11T10:53:32.492Z,21.4
2024-02-11T10:54:30.000Z,17.2
2024-02-11T10:55:30.187Z,19.2
2024-02-11T10:56:29.986Z,17.6
2024-02-11T10:57:29.988Z,17.4
2024-02-11T10:58:30.103Z,14.2
2024-02-11T10:59:30.009Z,17.3
2024-02-11T11:00:29.998Z,24.9
2024-02-11T11:01:29.864Z,27.2
2024-02-11T11:02:29.990Z,17.2
2024-02-11T11:03:30.210Z,16.4
2024-02-11T11:04:30.045Z,14.2
2024-02-11T11:05:30.291Z,15.8
2024-02-11T11:06:29.960Z,16.7
2024-02-11T11:07:34.176Z,17.3
2024-02-11T11:08:30.023Z,16.2
2024-02-11T11:09:29.935Z,15.8
2024-02-11T11:10:29.924Z,15.0
2024-02-11T11:11:29.882Z,22.7
2024-02-11T11:12:29.922Z,24.1
2024-02-11T11:13:30.177Z,18.8
2024-02-11T11:14:32.102Z,18.3
2024-02-11T11:15:29.891Z,21.3
2024-02-11T11:16:29.876Z,18.9
2024-02-11T11:17:30.015Z,16.9
2024-02-11T11:18:29.922Z,17.6
2024-02-11T11:19:29.905Z,18.2
2024-02-11T11:20:30.010Z,15.1
2024-02-11T11:21:31.417Z,14.3
2024-02-11T11:22:30.028Z,12.9
2024-02-11T11:23:29.917Z,15.1
2024-02-11T11:24:29.855Z,17.9
2024-02-11T11:25:30.607Z,48.0
2024-02-11T11:26:29.978Z,55.7
2024-02-11T11:27:29.850Z,48.6
2024-02-11T11:28:29.872Z,53.8
2024-02-11T11:29:30.615Z,54.7
2024-02-11T11:30:29.866Z,79.9
2024-02-11T11:31:29.932Z,37.5
2024-02-11T11:32:29.952Z,53.8
2024-02-11T11:33:32.770Z,43.4
2024-02-11T11:34:29.968Z,55.2
2024-02-11T11:35:32.031Z,46.7
2024-02-11T11:36:29.871Z,33.4
2024-02-11T11:37:29.918Z,49.7
2024-02-11T11:38:30.042Z,48.9
2024-02-11T11:39:33.036Z,63.3
2024-02-11T11:40:30.516Z,100.5
2024-02-11T11:41:30.655Z,133.7
2024-02-11T11:42:30.679Z,88.9
2024-02-11T11:43:30.647Z,128.6
2024-02-11T11:44:30.574Z,156.1
2024-02-11T11:45:33.811Z,149.4
2024-02-11T11:46:30.526Z,173.6
2024-02-11T11:47:30.789Z,160.2
2024-02-11T11:48:30.592Z,95.5
2024-02-11T11:49:30.581Z,61.8
2024-02-11T11:50:30.618Z,97.2
2024-02-11T11:51:33.801Z,70.0
2024-02-11T11:52:29.856Z,68.5
2024-02-11T11:53:29.923Z,54.1
2024-02-11T11:54:29.896Z,38.1
2024-02-11T11:55:30.006Z,47.7
2024-02-11T11:56:32.243Z,42.1
2024-02-11T11:57:32.843Z,60.6
2024-02-11T11:58:29.805Z,47.6
2024-02-11T11:59:29.871Z,47.5
2024-02-11T12:00:29.795Z,37.8
2024-02-11T12:01:29.918Z,34.1
2024-02-11T12:02:30.116Z,46.7
2024-02-11T12:03:29.860Z,39.9
2024-02-11T12:04:29.846Z,42.9
2024-02-11T12:05:29.910Z,26.1
2024-02-11T12:06:29.909Z,32.8
2024-02-11T12:07:29.811Z,33.8
2024-02-11T12:08:30.022Z,30.1
2024-02-11T12:09:29.901Z,27.3
2024-02-11T12:10:29.901Z,24.7
2024-02-11T12:11:30.007Z,24.9
2024-02-11T12:12:29.872Z,33.7
2024-02-11T12:13:29.878Z,34.3
2024-02-11T12:14:29.885Z,27.1
2024-02-11T12:15:29.923Z,28.2
2024-02-11T12:16:29.872Z,28.4
2024-02-11T12:17:32.782Z,21.8
2024-02-11T12:18:29.825Z,19.3
2024-02-11T12:19:29.821Z,20.8
2024-02-11T12:20:29.829Z,18.1
2024-02-11T12:21:29.810Z,32.8
2024-02-11T12:22:29.803Z,33.0
2024-02-11T12:23:30.031Z,41.5
2024-02-11T12:24:29.796Z,23.7
2024-02-11T12:25:29.801Z,34.9
2024-02-11T12:26:31.019Z,33.3
2024-02-11T12:27:29.754Z,26.3
2024-02-11T12:28:29.732Z,41.6
2024-02-11T12:29:29.823Z,38.0
2024-02-11T12:30:29.811Z,47.3
2024-02-11T12:31:29.788Z,46.2
2024-02-11T12:32:31.319Z,37.7
2024-02-11T12:33:29.899Z,26.1
2024-02-11T12:34:30.200Z,26.8
2024-02-11T12:35:29.779Z,26.2
2024-02-11T12:36:29.977Z,56.5
2024-02-11T12:37:30.467Z,32.9
2024-02-11T12:38:32.561Z,50.1
2024-02-11T12:39:29.761Z,51.4
2024-02-11T12:40:29.761Z,32.7
2024-02-11T12:41:29.792Z,25.8
2024-02-11T12:42:29.877Z,25.4
2024-02-11T12:43:29.727Z,22.2
2024-02-11T12:44:29.805Z,27.0
2024-02-11T12:45:29.787Z,18.2
2024-02-11T12:46:29.928Z,25.1
2024-02-11T12:47:29.976Z,25.3
2024-02-11T12:48:29.790Z,27.0
2024-02-11T12:49:29.738Z,21.1
2024-02-11T12:50:29.802Z,33.5
2024-02-11T12:51:29.728Z,31.4
2024-02-11T12:52:29.764Z,35.8
2024-02-11T12:53:29.753Z,46.5
2024-02-11T12:54:29.787Z,62.9
2024-02-11T12:55:29.707Z,62.8
2024-02-11T12:56:29.768Z,49.5
2024-02-11T12:57:29.721Z,45.8
2024-02-11T12:58:29.724Z,55.2
2024-02-11T12:59:32.921Z,56.4
2024-02-11T13:00:29.799Z,44.2
2024-02-11T13:01:29.738Z,50.6
2024-02-11T13:02:29.764Z,63.5
2024-02-11T13:03:30.513Z,65.9
2024-02-11T13:04:30.589Z,96.0
2024-02-11T13:05:30.575Z,90.4
2024-02-11T13:06:30.538Z,70.1
2024-02-11T13:07:30.492Z,72.4
2024-02-11T13:08:30.518Z,73.3
2024-02-11T13:09:29.739Z,72.3
2024-02-11T13:10:30.445Z,55.7
2024-02-11T13:11:30.538Z,63.3
2024-02-11T13:12:30.405Z,60.9
2024-02-11T13:13:29.700Z,63.2
2024-02-11T13:14:30.500Z,44.8
2024-02-11T13:15:29.769Z,51.6
2024-02-11T13:16:32.750Z,51.2
2024-02-11T13:17:30.464Z,50.4
2024-02-11T13:18:30.723Z,58.7
2024-02-11T13:19:30.585Z,69.6
2024-02-11T13:20:33.772Z,57.9
2024-02-11T13:21:30.456Z,61.9
2024-02-11T13:22:29.737Z,67.6
2024-02-11T13:23:30.372Z,61.6
2024-02-11T13:24:30.477Z,69.0
2024-02-11T13:25:30.385Z,87.6
2024-02-11T13:26:29.932Z,73.3
2024-02-11T13:27:29.719Z,61.7